sensor_id;sensor_type;location;lat;lon;timestamp;P1;durP1;ratioP1;P2;durP2;ratioP2
7263;SDS011;3673;52.480;13.348;2024-03-02T00:01:15;62.33;;;37.20;;
7263;SDS011;3673;52.480;13.348;2024-03-02T00:03:42;55.80;;;36.08;;
7263;SDS011;3673;52.480;13.348;2024-03-02T00:06:09;63.28;;;36.25;;
7263;SDS011;3673;52.480;13.348;2024-03-02T00:08:36;63.20;;;38.28;;
7263;SDS011;3673;52.480;13.348;2024-03-02T00:11:04;56.38;;;36.42;;
7263;SDS011;3673;52.480;13.348;2024-03-02T00:13:32;60.63;;;39.08;;
7263;SDS011;3673;52.480;13.348;2024-03-02T00:16:00;60.05;;;36.92;;
7263;SDS011;3673;52.480;13.348;2024-03-02T00:18:30;63.90;;;37.55;;
7263;SDS011;3673;52.480;13.348;2024-03-02T00:20:58;66.00;;;38.88;;
7263;SDS011;3673;52.480;13.348;2024-03-02T00:23:27;61.10;;;38.15;;
7263;SDS011;3673;52.480;13.348;2024-03-02T00:25:55;69.07;;;40.30;;
7263;SDS011;3673;52.480;13.348;2024-03-02T00:28:23;63.08;;;37.78;;
7263;SDS011;3673;52.480;13.348;2024-03-02T00:30:59;61.90;;;37.85;;
7263;SDS011;3673;52.480;13.348;2024-03-02T00:33:30;63.05;;;39.25;;
7263;SDS011;3673;52.480;13.348;2024-03-02T00:35:59;62.50;;;37.45;;
7263;SDS011;3673;52.480;13.348;2024-03-02T00:38:25;73.22;;;38.80;;
7263;SDS011;3673;52.480;13.348;2024-03-02T00:40:52;61.15;;;38.28;;
7263;SDS011;3673;52.480;13.348;2024-03-02T00:43:33;70.18;;;39.55;;
7263;SDS011;3673;52.480;13.348;2024-03-02T00:46:15;61.58;;;36.85;;
7263;SDS011;3673;52.480;13.348;2024-03-02T00:48:48;61.33;;;37.17;;
7263;SDS011;3673;52.480;13.348;2024-03-02T00:51:20;61.55;;;37.75;;
7263;SDS011;3673;52.480;13.348;2024-03-02T00:53:47;66.18;;;38.17;;
7263;SDS011;3673;52.480;13.348;2024-03-02T00:56:15;69.32;;;40.75;;
7263;SDS011;3673;52.480;13.348;2024-03-02T00:58:42;60.17;;;38.38;;
7263;SDS011;3673;52.480;13.348;2024-03-02T01:01:09;61.00;;;38.03;;
7263;SDS011;3673;52.480;13.348;2024-03-02T01:03:37;62.72;;;37.80;;
7263;SDS011;3673;52.480;13.348;2024-03-02T01:06:04;59.65;;;37.38;;
7263;SDS011;3673;52.480;13.348;2024-03-02T01:08:32;66.85;;;40.78;;
7263;SDS011;3673;52.480;13.348;2024-03-02T01:10:59;59.65;;;38.97;;
7263;SDS011;3673;52.480;13.348;2024-03-02T01:13:26;59.90;;;36.88;;
7263;SDS011;3673;52.480;13.348;2024-03-02T01:15:53;59.35;;;37.47;;
7263;SDS011;3673;52.480;13.348;2024-03-02T01:18:20;68.22;;;40.63;;
7263;SDS011;3673;52.480;13.348;2024-03-02T01:20:48;68.53;;;40.78;;
7263;SDS011;3673;52.480;13.348;2024-03-02T01:23:16;62.35;;;37.03;;
7263;SDS011;3673;52.480;13.348;2024-03-02T01:25:44;63.70;;;39.65;;
7263;SDS011;3673;52.480;13.348;2024-03-02T01:28:11;70.78;;;40.30;;
7263;SDS011;3673;52.480;13.348;2024-03-02T01:30:38;78.82;;;46.60;;
7263;SDS011;3673;52.480;13.348;2024-03-02T01:33:04;77.57;;;47.30;;
7263;SDS011;3673;52.480;13.348;2024-03-02T01:35:32;67.35;;;41.20;;
7263;SDS011;3673;52.480;13.348;2024-03-02T01:38:01;75.43;;;48.53;;
7263;SDS011;3673;52.480;13.348;2024-03-02T01:40:27;68.55;;;43.17;;
7263;SDS011;3673;52.480;13.348;2024-03-02T01:42:54;68.80;;;40.33;;
7263;SDS011;3673;52.480;13.348;2024-03-02T01:45:23;67.13;;;39.95;;
7263;SDS011;3673;52.480;13.348;2024-03-02T01:47:50;63.22;;;40.33;;
7263;SDS011;3673;52.480;13.348;2024-03-02T01:50:23;62.22;;;40.17;;
7263;SDS011;3673;52.480;13.348;2024-03-02T01:52:52;65.13;;;41.67;;
7263;SDS011;3673;52.480;13.348;2024-03-02T01:55:20;64.45;;;40.30;;
7263;SDS011;3673;52.480;13.348;2024-03-02T01:57:47;68.65;;;42.53;;
7263;SDS011;3673;52.480;13.348;2024-03-02T02:00:15;63.28;;;40.78;;
7263;SDS011;3673;52.480;13.348;2024-03-02T02:02:43;69.65;;;42.03;;
7263;SDS011;3673;52.480;13.348;2024-03-02T02:05:10;66.00;;;42.28;;
7263;SDS011;3673;52.480;13.348;2024-03-02T02:07:37;68.45;;;41.15;;
7263;SDS011;3673;52.480;13.348;2024-03-02T02:10:04;65.03;;;41.65;;
7263;SDS011;3673;52.480;13.348;2024-03-02T02:12:33;69.15;;;41.67;;
7263;SDS011;3673;52.480;13.348;2024-03-02T02:15:01;63.10;;;42.08;;
7263;SDS011;3673;52.480;13.348;2024-03-02T02:17:28;67.78;;;43.10;;
7263;SDS011;3673;52.480;13.348;2024-03-02T02:19:55;63.03;;;40.60;;
7263;SDS011;3673;52.480;13.348;2024-03-02T02:22:23;64.05;;;42.50;;
7263;SDS011;3673;52.480;13.348;2024-03-02T02:24:50;72.93;;;42.60;;
7263;SDS011;3673;52.480;13.348;2024-03-02T02:27:17;65.22;;;42.67;;
7263;SDS011;3673;52.480;13.348;2024-03-02T02:29:44;71.60;;;44.47;;
7263;SDS011;3673;52.480;13.348;2024-03-02T02:32:10;70.72;;;43.58;;
7263;SDS011;3673;52.480;13.348;2024-03-02T02:34:37;70.85;;;44.10;;
7263;SDS011;3673;52.480;13.348;2024-03-02T02:37:04;79.53;;;44.20;;
7263;SDS011;3673;52.480;13.348;2024-03-02T02:39:32;72.97;;;43.78;;
7263;SDS011;3673;52.480;13.348;2024-03-02T02:41:59;77.53;;;45.80;;
7263;SDS011;3673;52.480;13.348;2024-03-02T02:44:28;67.50;;;43.45;;
7263;SDS011;3673;52.480;13.348;2024-03-02T02:46:55;67.47;;;42.97;;
7263;SDS011;3673;52.480;13.348;2024-03-02T02:49:22;82.25;;;52.42;;
7263;SDS011;3673;52.480;13.348;2024-03-02T02:51:48;97.07;;;60.08;;
7263;SDS011;3673;52.480;13.348;2024-03-02T02:54:15;80.47;;;46.55;;
7263;SDS011;3673;52.480;13.348;2024-03-02T02:56:43;69.38;;;44.13;;
7263;SDS011;3673;52.480;13.348;2024-03-02T02:59:10;67.68;;;42.22;;
7263;SDS011;3673;52.480;13.348;2024-03-02T03:01:37;70.18;;;42.22;;
7263;SDS011;3673;52.480;13.348;2024-03-02T03:04:03;70.43;;;41.78;;
7263;SDS011;3673;52.480;13.348;2024-03-02T03:06:30;58.78;;;39.65;;
7263;SDS011;3673;52.480;13.348;2024-03-02T03:08:57;67.93;;;41.63;;
7263;SDS011;3673;52.480;13.348;2024-03-02T03:11:23;69.55;;;41.70;;
7263;SDS011;3673;52.480;13.348;2024-03-02T03:13:52;66.28;;;41.78;;
7263;SDS011;3673;52.480;13.348;2024-03-02T03:16:19;62.83;;;40.25;;
7263;SDS011;3673;52.480;13.348;2024-03-02T03:18:46;63.65;;;39.97;;
7263;SDS011;3673;52.480;13.348;2024-03-02T03:21:15;57.28;;;38.92;;
7263;SDS011;3673;52.480;13.348;2024-03-02T03:23:41;65.85;;;40.53;;
7263;SDS011;3673;52.480;13.348;2024-03-02T03:26:08;66.03;;;41.17;;
7263;SDS011;3673;52.480;13.348;2024-03-02T03:28:35;67.63;;;38.28;;
7263;SDS011;3673;52.480;13.348;2024-03-02T03:31:03;61.10;;;39.53;;
7263;SDS011;3673;52.480;13.348;2024-03-02T03:33:31;55.20;;;36.65;;
7263;SDS011;3673;52.480;13.348;2024-03-02T03:35:57;63.95;;;39.33;;
7263;SDS011;3673;52.480;13.348;2024-03-02T03:38:24;65.90;;;39.75;;
7263;SDS011;3673;52.480;13.348;2024-03-02T03:40:51;61.85;;;38.65;;
7263;SDS011;3673;52.480;13.348;2024-03-02T03:43:17;61.15;;;38.10;;
7263;SDS011;3673;52.480;13.348;2024-03-02T03:45:44;62.90;;;38.50;;
7263;SDS011;3673;52.480;13.348;2024-03-02T03:48:12;59.92;;;39.13;;
7263;SDS011;3673;52.480;13.348;2024-03-02T03:50:39;60.05;;;37.90;;
7263;SDS011;3673;52.480;13.348;2024-03-02T03:53:06;60.97;;;38.22;;
7263;SDS011;3673;52.480;13.348;2024-03-02T03:55:33;65.43;;;39.28;;
7263;SDS011;3673;52.480;13.348;2024-03-02T03:58:00;65.45;;;38.92;;
7263;SDS011;3673;52.480;13.348;2024-03-02T04:00:27;69.90;;;45.95;;
7263;SDS011;3673;52.480;13.348;2024-03-02T04:02:53;63.55;;;40.08;;
7263;SDS011;3673;52.480;13.348;2024-03-02T04:05:22;67.13;;;42.05;;
7263;SDS011;3673;52.480;13.348;2024-03-02T04:07:49;58.72;;;35.88;;
7263;SDS011;3673;52.480;13.348;2024-03-02T04:10:16;54.20;;;35.63;;
7263;SDS011;3673;52.480;13.348;2024-03-02T04:12:43;55.60;;;34.58;;
7263;SDS011;3673;52.480;13.348;2024-03-02T04:15:09;57.55;;;36.40;;
7263;SDS011;3673;52.480;13.348;2024-03-02T04:17:36;51.42;;;35.38;;
7263;SDS011;3673;52.480;13.348;2024-03-02T04:20:03;57.83;;;36.78;;
7263;SDS011;3673;52.480;13.348;2024-03-02T04:22:33;56.28;;;36.72;;
7263;SDS011;3673;52.480;13.348;2024-03-02T04:25:01;57.40;;;37.03;;
7263;SDS011;3673;52.480;13.348;2024-03-02T04:27:29;56.38;;;35.13;;
7263;SDS011;3673;52.480;13.348;2024-03-02T04:29:57;52.13;;;34.55;;
7263;SDS011;3673;52.480;13.348;2024-03-02T04:32:25;56.60;;;35.63;;
7263;SDS011;3673;52.480;13.348;2024-03-02T04:34:52;59.92;;;36.67;;
7263;SDS011;3673;52.480;13.348;2024-03-02T04:37:19;59.72;;;34.97;;
7263;SDS011;3673;52.480;13.348;2024-03-02T04:39:47;56.75;;;35.25;;
7263;SDS011;3673;52.480;13.348;2024-03-02T04:42:14;52.53;;;34.85;;
7263;SDS011;3673;52.480;13.348;2024-03-02T04:44:41;52.33;;;33.92;;
7263;SDS011;3673;52.480;13.348;2024-03-02T04:47:08;57.40;;;35.92;;
7263;SDS011;3673;52.480;13.348;2024-03-02T04:49:34;54.00;;;35.17;;
7263;SDS011;3673;52.480;13.348;2024-03-02T04:52:01;53.55;;;34.70;;
7263;SDS011;3673;52.480;13.348;2024-03-02T04:54:28;55.20;;;35.28;;
7263;SDS011;3673;52.480;13.348;2024-03-02T04:56:56;55.22;;;34.90;;
7263;SDS011;3673;52.480;13.348;2024-03-02T04:59:23;60.10;;;35.92;;
7263;SDS011;3673;52.480;13.348;2024-03-02T05:01:50;58.10;;;35.20;;
7263;SDS011;3673;52.480;13.348;2024-03-02T05:04:17;54.13;;;35.92;;
7263;SDS011;3673;52.480;13.348;2024-03-02T05:06:43;53.03;;;34.03;;
7263;SDS011;3673;52.480;13.348;2024-03-02T05:09:15;58.65;;;35.00;;
7263;SDS011;3673;52.480;13.348;2024-03-02T05:11:42;55.30;;;34.60;;
7263;SDS011;3673;52.480;13.348;2024-03-02T05:14:29;55.30;;;34.50;;
7263;SDS011;3673;52.480;13.348;2024-03-02T05:16:56;57.67;;;36.00;;
7263;SDS011;3673;52.480;13.348;2024-03-02T05:19:22;65.90;;;36.78;;
7263;SDS011;3673;52.480;13.348;2024-03-02T05:21:50;57.65;;;36.70;;
7263;SDS011;3673;52.480;13.348;2024-03-02T05:24:17;58.97;;;36.22;;
7263;SDS011;3673;52.480;13.348;2024-03-02T05:26:44;51.97;;;35.20;;
7263;SDS011;3673;52.480;13.348;2024-03-02T05:29:10;59.03;;;37.65;;
7263;SDS011;3673;52.480;13.348;2024-03-02T05:31:39;56.88;;;37.28;;
7263;SDS011;3673;52.480;13.348;2024-03-02T05:34:05;59.65;;;36.38;;
7263;SDS011;3673;52.480;13.348;2024-03-02T05:36:32;59.42;;;37.03;;
7263;SDS011;3673;52.480;13.348;2024-03-02T05:38:59;62.47;;;37.20;;
7263;SDS011;3673;52.480;13.348;2024-03-02T05:41:26;63.15;;;39.78;;
7263;SDS011;3673;52.480;13.348;2024-03-02T05:43:52;60.97;;;37.75;;
7263;SDS011;3673;52.480;13.348;2024-03-02T05:46:19;63.53;;;40.47;;
7263;SDS011;3673;52.480;13.348;2024-03-02T05:48:48;62.75;;;39.17;;
7263;SDS011;3673;52.480;13.348;2024-03-02T05:51:15;62.05;;;37.95;;
7263;SDS011;3673;52.480;13.348;2024-03-02T05:53:41;63.85;;;39.05;;
7263;SDS011;3673;52.480;13.348;2024-03-02T05:56:08;71.07;;;41.00;;
7263;SDS011;3673;52.480;13.348;2024-03-02T05:58:35;64.32;;;39.97;;
7263;SDS011;3673;52.480;13.348;2024-03-02T06:03:54;65.10;;;38.97;;
7263;SDS011;3673;52.480;13.348;2024-03-02T06:06:21;68.82;;;41.17;;
7263;SDS011;3673;52.480;13.348;2024-03-02T06:08:48;65.50;;;41.25;;
7263;SDS011;3673;52.480;13.348;2024-03-02T06:11:16;73.45;;;43.15;;
7263;SDS011;3673;52.480;13.348;2024-03-02T06:13:42;68.53;;;40.38;;
7263;SDS011;3673;52.480;13.348;2024-03-02T06:16:09;73.65;;;41.80;;
7263;SDS011;3673;52.480;13.348;2024-03-02T06:18:36;71.60;;;40.50;;
7263;SDS011;3673;52.480;13.348;2024-03-02T06:21:04;69.18;;;41.38;;
7263;SDS011;3673;52.480;13.348;2024-03-02T06:23:31;62.63;;;38.92;;
7263;SDS011;3673;52.480;13.348;2024-03-02T06:25:58;65.35;;;41.97;;
7263;SDS011;3673;52.480;13.348;2024-03-02T06:28:24;66.93;;;41.20;;
7263;SDS011;3673;52.480;13.348;2024-03-02T06:30:51;72.53;;;39.47;;
7263;SDS011;3673;52.480;13.348;2024-03-02T06:33:18;68.70;;;39.88;;
7263;SDS011;3673;52.480;13.348;2024-03-02T06:35:45;61.75;;;38.60;;
7263;SDS011;3673;52.480;13.348;2024-03-02T06:38:13;72.20;;;41.85;;
7263;SDS011;3673;52.480;13.348;2024-03-02T06:40:40;73.60;;;41.47;;
7263;SDS011;3673;52.480;13.348;2024-03-02T06:43:07;66.40;;;39.40;;
7263;SDS011;3673;52.480;13.348;2024-03-02T06:45:34;65.90;;;39.88;;
7263;SDS011;3673;52.480;13.348;2024-03-02T06:48:01;65.13;;;39.95;;
7263;SDS011;3673;52.480;13.348;2024-03-02T06:50:28;66.45;;;38.80;;
7263;SDS011;3673;52.480;13.348;2024-03-02T06:52:54;64.68;;;40.47;;
7263;SDS011;3673;52.480;13.348;2024-03-02T06:55:23;65.97;;;38.83;;
7263;SDS011;3673;52.480;13.348;2024-03-02T06:57:50;64.05;;;38.97;;
7263;SDS011;3673;52.480;13.348;2024-03-02T07:00:18;71.70;;;40.08;;
7263;SDS011;3673;52.480;13.348;2024-03-02T07:02:46;64.80;;;37.50;;
7263;SDS011;3673;52.480;13.348;2024-03-02T07:05:13;63.63;;;40.80;;
7263;SDS011;3673;52.480;13.348;2024-03-02T07:07:40;63.67;;;39.33;;
7263;SDS011;3673;52.480;13.348;2024-03-02T07:10:07;62.75;;;38.28;;
7263;SDS011;3673;52.480;13.348;2024-03-02T07:12:35;65.72;;;40.78;;
7263;SDS011;3673;52.480;13.348;2024-03-02T07:15:02;61.45;;;39.17;;
7263;SDS011;3673;52.480;13.348;2024-03-02T07:18:02;63.30;;;37.58;;
7263;SDS011;3673;52.480;13.348;2024-03-02T07:20:29;63.85;;;38.28;;
7263;SDS011;3673;52.480;13.348;2024-03-02T07:22:55;68.30;;;39.65;;
7263;SDS011;3673;52.480;13.348;2024-03-02T07:25:22;68.82;;;40.50;;
7263;SDS011;3673;52.480;13.348;2024-03-02T07:27:50;66.72;;;41.65;;
7263;SDS011;3673;52.480;13.348;2024-03-02T07:30:17;69.10;;;41.88;;
7263;SDS011;3673;52.480;13.348;2024-03-02T07:32:44;72.57;;;40.13;;
7263;SDS011;3673;52.480;13.348;2024-03-02T07:35:11;69.65;;;39.90;;
7263;SDS011;3673;52.480;13.348;2024-03-02T07:37:39;72.82;;;41.00;;
7263;SDS011;3673;52.480;13.348;2024-03-02T07:40:07;67.47;;;39.88;;
7263;SDS011;3673;52.480;13.348;2024-03-02T07:42:36;66.13;;;39.47;;
7263;SDS011;3673;52.480;13.348;2024-03-02T07:45:06;60.80;;;38.17;;
7263;SDS011;3673;52.480;13.348;2024-03-02T07:47:33;65.40;;;41.10;;
7263;SDS011;3673;52.480;13.348;2024-03-02T07:50:00;61.55;;;40.03;;
7263;SDS011;3673;52.480;13.348;2024-03-02T07:52:27;65.13;;;37.47;;
7263;SDS011;3673;52.480;13.348;2024-03-02T07:54:54;68.65;;;39.60;;
7263;SDS011;3673;52.480;13.348;2024-03-02T07:57:21;58.97;;;34.38;;
7263;SDS011;3673;52.480;13.348;2024-03-02T07:59:47;62.38;;;37.90;;
7263;SDS011;3673;52.480;13.348;2024-03-02T08:02:16;62.10;;;36.80;;
7263;SDS011;3673;52.480;13.348;2024-03-02T08:04:42;57.65;;;35.60;;
7263;SDS011;3673;52.480;13.348;2024-03-02T08:07:10;57.40;;;37.22;;
7263;SDS011;3673;52.480;13.348;2024-03-02T08:09:37;61.20;;;37.17;;
7263;SDS011;3673;52.480;13.348;2024-03-02T08:12:04;56.10;;;36.00;;
7263;SDS011;3673;52.480;13.348;2024-03-02T08:14:31;60.05;;;36.28;;
7263;SDS011;3673;52.480;13.348;2024-03-02T08:16:58;53.30;;;34.28;;
7263;SDS011;3673;52.480;13.348;2024-03-02T08:19:27;61.08;;;37.10;;
7263;SDS011;3673;52.480;13.348;2024-03-02T08:21:55;57.00;;;35.53;;
7263;SDS011;3673;52.480;13.348;2024-03-02T08:24:21;57.88;;;36.92;;
7263;SDS011;3673;52.480;13.348;2024-03-02T08:26:48;64.90;;;36.45;;
7263;SDS011;3673;52.480;13.348;2024-03-02T08:29:15;56.80;;;37.03;;
7263;SDS011;3673;52.480;13.348;2024-03-02T08:31:42;62.47;;;37.97;;
7263;SDS011;3673;52.480;13.348;2024-03-02T08:34:08;69.68;;;39.05;;
7263;SDS011;3673;52.480;13.348;2024-03-02T08:36:36;60.97;;;37.97;;
7263;SDS011;3673;52.480;13.348;2024-03-02T08:39:03;61.22;;;37.53;;
7263;SDS011;3673;52.480;13.348;2024-03-02T08:41:32;62.55;;;37.97;;
7263;SDS011;3673;52.480;13.348;2024-03-02T08:43:59;62.35;;;36.70;;
7263;SDS011;3673;52.480;13.348;2024-03-02T08:46:26;58.38;;;38.10;;
7263;SDS011;3673;52.480;13.348;2024-03-02T08:48:53;61.15;;;37.03;;
7263;SDS011;3673;52.480;13.348;2024-03-02T08:51:20;58.65;;;34.45;;
7263;SDS011;3673;52.480;13.348;2024-03-02T08:53:48;61.60;;;36.60;;
7263;SDS011;3673;52.480;13.348;2024-03-02T08:56:15;58.65;;;37.45;;
7263;SDS011;3673;52.480;13.348;2024-03-02T08:58:42;58.50;;;36.33;;
7263;SDS011;3673;52.480;13.348;2024-03-02T09:01:09;52.72;;;33.70;;
7263;SDS011;3673;52.480;13.348;2024-03-02T09:03:37;55.88;;;34.28;;
7263;SDS011;3673;52.480;13.348;2024-03-02T09:06:04;57.78;;;34.75;;
7263;SDS011;3673;52.480;13.348;2024-03-02T09:08:30;54.70;;;34.35;;
7263;SDS011;3673;52.480;13.348;2024-03-02T09:10:58;56.72;;;34.25;;
7263;SDS011;3673;52.480;13.348;2024-03-02T09:13:25;60.13;;;34.80;;
7263;SDS011;3673;52.480;13.348;2024-03-02T09:15:52;61.95;;;37.42;;
7263;SDS011;3673;52.480;13.348;2024-03-02T09:18:19;60.38;;;36.92;;
7263;SDS011;3673;52.480;13.348;2024-03-02T09:20:45;55.75;;;34.83;;
7263;SDS011;3673;52.480;13.348;2024-03-02T09:23:12;59.30;;;36.85;;
7263;SDS011;3673;52.480;13.348;2024-03-02T09:25:39;62.20;;;37.22;;
7263;SDS011;3673;52.480;13.348;2024-03-02T09:28:07;60.60;;;36.42;;
7263;SDS011;3673;52.480;13.348;2024-03-02T09:30:34;55.67;;;35.63;;
7263;SDS011;3673;52.480;13.348;2024-03-02T09:33:00;57.35;;;35.88;;
7263;SDS011;3673;52.480;13.348;2024-03-02T09:35:27;60.60;;;37.10;;
7263;SDS011;3673;52.480;13.348;2024-03-02T09:37:54;53.65;;;35.45;;
7263;SDS011;3673;52.480;13.348;2024-03-02T09:40:21;53.03;;;33.97;;
7263;SDS011;3673;52.480;13.348;2024-03-02T09:42:48;58.90;;;35.05;;
7263;SDS011;3673;52.480;13.348;2024-03-02T09:45:19;55.10;;;33.08;;
7263;SDS011;3673;52.480;13.348;2024-03-02T09:47:50;53.75;;;34.50;;
7263;SDS011;3673;52.480;13.348;2024-03-02T09:50:17;55.42;;;35.13;;
7263;SDS011;3673;52.480;13.348;2024-03-02T09:52:44;58.83;;;34.90;;
7263;SDS011;3673;52.480;13.348;2024-03-02T09:55:15;51.08;;;32.80;;
7263;SDS011;3673;52.480;13.348;2024-03-02T09:57:43;50.60;;;32.35;;
7263;SDS011;3673;52.480;13.348;2024-03-02T10:00:11;45.53;;;30.17;;
7263;SDS011;3673;52.480;13.348;2024-03-02T10:02:41;52.08;;;30.27;;
7263;SDS011;3673;52.480;13.348;2024-03-02T10:05:08;49.60;;;29.80;;
7263;SDS011;3673;52.480;13.348;2024-03-02T10:07:35;47.03;;;31.05;;
7263;SDS011;3673;52.480;13.348;2024-03-02T10:10:12;46.33;;;28.98;;
7263;SDS011;3673;52.480;13.348;2024-03-02T10:12:40;45.42;;;30.02;;
7263;SDS011;3673;52.480;13.348;2024-03-02T10:15:07;42.75;;;28.63;;
7263;SDS011;3673;52.480;13.348;2024-03-02T10:17:34;42.28;;;28.17;;
7263;SDS011;3673;52.480;13.348;2024-03-02T10:22:51;41.13;;;26.48;;
7263;SDS011;3673;52.480;13.348;2024-03-02T10:25:30;44.17;;;28.17;;
7263;SDS011;3673;52.480;13.348;2024-03-02T10:27:58;40.88;;;27.75;;
7263;SDS011;3673;52.480;13.348;2024-03-02T10:30:25;44.33;;;28.52;;
7263;SDS011;3673;52.480;13.348;2024-03-02T10:32:53;39.05;;;26.80;;
7263;SDS011;3673;52.480;13.348;2024-03-02T10:35:21;45.47;;;25.65;;
7263;SDS011;3673;52.480;13.348;2024-03-02T10:37:50;41.95;;;25.92;;
7263;SDS011;3673;52.480;13.348;2024-03-02T10:40:17;35.88;;;24.85;;
7263;SDS011;3673;52.480;13.348;2024-03-02T10:42:47;40.05;;;25.95;;
7263;SDS011;3673;52.480;13.348;2024-03-02T10:45:15;38.63;;;24.80;;
7263;SDS011;3673;52.480;13.348;2024-03-02T10:47:43;36.03;;;23.98;;
7263;SDS011;3673;52.480;13.348;2024-03-02T10:50:10;36.35;;;24.63;;
7263;SDS011;3673;52.480;13.348;2024-03-02T10:52:37;35.90;;;22.80;;
7263;SDS011;3673;52.480;13.348;2024-03-02T10:55:07;35.05;;;23.13;;
7263;SDS011;3673;52.480;13.348;2024-03-02T10:57:38;44.92;;;24.13;;
7263;SDS011;3673;52.480;13.348;2024-03-02T11:00:11;37.90;;;23.77;;
7263;SDS011;3673;52.480;13.348;2024-03-02T11:02:42;38.42;;;24.05;;
7263;SDS011;3673;52.480;13.348;2024-03-02T11:05:16;36.13;;;23.70;;
7263;SDS011;3673;52.480;13.348;2024-03-02T11:07:52;31.73;;;22.35;;
7263;SDS011;3673;52.480;13.348;2024-03-02T11:10:24;34.95;;;22.85;;
7263;SDS011;3673;52.480;13.348;2024-03-02T11:12:54;33.90;;;23.35;;
7263;SDS011;3673;52.480;13.348;2024-03-02T11:15:27;36.47;;;23.35;;
7263;SDS011;3673;52.480;13.348;2024-03-02T11:17:54;33.80;;;21.65;;
7263;SDS011;3673;52.480;13.348;2024-03-02T11:20:22;30.65;;;20.90;;
7263;SDS011;3673;52.480;13.348;2024-03-02T11:22:50;44.88;;;24.75;;
7263;SDS011;3673;52.480;13.348;2024-03-02T11:25:24;33.67;;;21.63;;
7263;SDS011;3673;52.480;13.348;2024-03-02T11:27:59;35.17;;;21.83;;
7263;SDS011;3673;52.480;13.348;2024-03-02T11:33:24;29.27;;;21.00;;
7263;SDS011;3673;52.480;13.348;2024-03-02T11:35:55;32.60;;;22.17;;
7263;SDS011;3673;52.480;13.348;2024-03-02T11:38:23;36.17;;;21.38;;
7263;SDS011;3673;52.480;13.348;2024-03-02T11:41:00;29.42;;;20.92;;
7263;SDS011;3673;52.480;13.348;2024-03-02T11:43:28;32.78;;;21.48;;
7263;SDS011;3673;52.480;13.348;2024-03-02T11:45:59;31.80;;;21.33;;
7263;SDS011;3673;52.480;13.348;2024-03-02T11:48:29;34.03;;;21.77;;
7263;SDS011;3673;52.480;13.348;2024-03-02T11:50:57;35.42;;;22.10;;
7263;SDS011;3673;52.480;13.348;2024-03-02T11:53:26;34.70;;;22.25;;
7263;SDS011;3673;52.480;13.348;2024-03-02T11:55:54;33.38;;;21.80;;
7263;SDS011;3673;52.480;13.348;2024-03-02T11:58:23;32.15;;;20.63;;
7263;SDS011;3673;52.480;13.348;2024-03-02T12:00:51;32.45;;;21.80;;
7263;SDS011;3673;52.480;13.348;2024-03-02T12:03:20;29.45;;;20.95;;
7263;SDS011;3673;52.480;13.348;2024-03-02T12:05:48;34.85;;;21.40;;
7263;SDS011;3673;52.480;13.348;2024-03-02T12:08:16;35.15;;;22.30;;
7263;SDS011;3673;52.480;13.348;2024-03-02T12:10:43;34.05;;;22.55;;
7263;SDS011;3673;52.480;13.348;2024-03-02T12:13:21;33.13;;;21.90;;
7263;SDS011;3673;52.480;13.348;2024-03-02T12:15:50;37.20;;;21.63;;
7263;SDS011;3673;52.480;13.348;2024-03-02T12:18:20;34.38;;;23.98;;
7263;SDS011;3673;52.480;13.348;2024-03-02T12:20:48;30.48;;;20.67;;
7263;SDS011;3673;52.480;13.348;2024-03-02T12:23:17;33.15;;;22.30;;
7263;SDS011;3673;52.480;13.348;2024-03-02T12:25:48;35.85;;;22.70;;
7263;SDS011;3673;52.480;13.348;2024-03-02T12:28:19;34.17;;;21.88;;
7263;SDS011;3673;52.480;13.348;2024-03-02T12:30:46;35.45;;;23.77;;
7263;SDS011;3673;52.480;13.348;2024-03-02T12:33:15;30.63;;;21.55;;
7263;SDS011;3673;52.480;13.348;2024-03-02T12:35:42;35.88;;;22.98;;
7263;SDS011;3673;52.480;13.348;2024-03-02T12:38:09;34.03;;;22.27;;
7263;SDS011;3673;52.480;13.348;2024-03-02T12:40:36;34.80;;;22.95;;
7263;SDS011;3673;52.480;13.348;2024-03-02T12:43:04;35.58;;;22.48;;
7263;SDS011;3673;52.480;13.348;2024-03-02T12:45:31;32.35;;;22.08;;
7263;SDS011;3673;52.480;13.348;2024-03-02T12:47:59;33.95;;;22.77;;
7263;SDS011;3673;52.480;13.348;2024-03-02T12:50:28;31.48;;;21.38;;
7263;SDS011;3673;52.480;13.348;2024-03-02T12:52:54;37.13;;;22.13;;
7263;SDS011;3673;52.480;13.348;2024-03-02T12:55:22;34.83;;;23.30;;
7263;SDS011;3673;52.480;13.348;2024-03-02T12:57:49;32.13;;;22.17;;
7263;SDS011;3673;52.480;13.348;2024-03-02T13:00:20;35.80;;;21.38;;
7263;SDS011;3673;52.480;13.348;2024-03-02T13:02:48;33.35;;;22.00;;
7263;SDS011;3673;52.480;13.348;2024-03-02T13:05:16;32.53;;;21.63;;
7263;SDS011;3673;52.480;13.348;2024-03-02T13:07:44;35.72;;;22.55;;
7263;SDS011;3673;52.480;13.348;2024-03-02T13:10:13;32.50;;;21.35;;
7263;SDS011;3673;52.480;13.348;2024-03-02T13:12:40;28.77;;;21.73;;
7263;SDS011;3673;52.480;13.348;2024-03-02T13:15:08;32.92;;;20.13;;
7263;SDS011;3673;52.480;13.348;2024-03-02T13:17:35;28.10;;;21.05;;
7263;SDS011;3673;52.480;13.348;2024-03-02T13:20:02;37.08;;;22.95;;
7263;SDS011;3673;52.480;13.348;2024-03-02T13:22:33;32.53;;;22.30;;
7263;SDS011;3673;52.480;13.348;2024-03-02T13:25:01;28.02;;;20.55;;
7263;SDS011;3673;52.480;13.348;2024-03-02T13:27:29;28.17;;;20.08;;
7263;SDS011;3673;52.480;13.348;2024-03-02T13:29:56;31.70;;;20.30;;
7263;SDS011;3673;52.480;13.348;2024-03-02T13:32:23;29.98;;;21.00;;
7263;SDS011;3673;52.480;13.348;2024-03-02T13:34:51;31.95;;;21.88;;
7263;SDS011;3673;52.480;13.348;2024-03-02T13:37:18;30.13;;;20.13;;
7263;SDS011;3673;52.480;13.348;2024-03-02T13:39:46;30.08;;;19.48;;
7263;SDS011;3673;52.480;13.348;2024-03-02T13:42:14;34.47;;;23.73;;
7263;SDS011;3673;52.480;13.348;2024-03-02T13:44:43;30.77;;;20.75;;
7263;SDS011;3673;52.480;13.348;2024-03-02T13:47:13;29.52;;;19.95;;
7263;SDS011;3673;52.480;13.348;2024-03-02T13:49:39;32.08;;;24.88;;
7263;SDS011;3673;52.480;13.348;2024-03-02T13:52:12;29.75;;;21.63;;
7263;SDS011;3673;52.480;13.348;2024-03-02T13:54:39;25.83;;;19.13;;
7263;SDS011;3673;52.480;13.348;2024-03-02T13:57:07;28.02;;;18.80;;
7263;SDS011;3673;52.480;13.348;2024-03-02T13:59:37;24.67;;;18.20;;
7263;SDS011;3673;52.480;13.348;2024-03-02T14:02:08;26.23;;;18.02;;
7263;SDS011;3673;52.480;13.348;2024-03-02T14:04:35;24.65;;;16.23;;
7263;SDS011;3673;52.480;13.348;2024-03-02T14:07:07;25.92;;;19.60;;
7263;SDS011;3673;52.480;13.348;2024-03-02T14:09:35;31.27;;;22.75;;
7263;SDS011;3673;52.480;13.348;2024-03-02T14:12:03;34.83;;;22.17;;
7263;SDS011;3673;52.480;13.348;2024-03-02T14:14:31;18.27;;;13.27;;
7263;SDS011;3673;52.480;13.348;2024-03-02T14:17:00;28.02;;;20.42;;
7263;SDS011;3673;52.480;13.348;2024-03-02T14:19:31;25.17;;;18.38;;
7263;SDS011;3673;52.480;13.348;2024-03-02T14:21:58;21.90;;;15.23;;
7263;SDS011;3673;52.480;13.348;2024-03-02T14:24:25;24.55;;;18.23;;
7263;SDS011;3673;52.480;13.348;2024-03-02T14:26:54;25.63;;;15.93;;
7263;SDS011;3673;52.480;13.348;2024-03-02T14:29:22;24.67;;;16.80;;
7263;SDS011;3673;52.480;13.348;2024-03-02T14:31:49;18.63;;;13.57;;
7263;SDS011;3673;52.480;13.348;2024-03-02T14:34:17;19.55;;;14.50;;
7263;SDS011;3673;52.480;13.348;2024-03-02T14:36:44;21.77;;;15.18;;
7263;SDS011;3673;52.480;13.348;2024-03-02T14:39:10;27.35;;;18.45;;
7263;SDS011;3673;52.480;13.348;2024-03-02T14:41:37;21.88;;;14.68;;
7263;SDS011;3673;52.480;13.348;2024-03-02T14:44:04;21.98;;;15.35;;
7263;SDS011;3673;52.480;13.348;2024-03-02T14:46:31;23.08;;;16.65;;